sensor_id;sensor_type;location;lat;lon;timestamp;P1;durP1;ratioP1;P2;durP2;ratioP2
325;SDS011;150;52.352;14.058;2023-02-28T00:00:23;4.22;;;3.63;;
325;SDS011;150;52.352;14.058;2023-02-28T00:02:50;6.28;;;4.13;;
325;SDS011;150;52.352;14.058;2023-02-28T00:05:18;9.43;;;4.78;;
325;SDS011;150;52.352;14.058;2023-02-28T00:07:46;5.88;;;4.50;;
325;SDS011;150;52.352;14.058;2023-02-28T00:10:15;7.03;;;3.38;;
325;SDS011;150;52.352;14.058;2023-02-28T00:12:45;7.65;;;4.75;;
325;SDS011;150;52.352;14.058;2023-02-28T00:15:12;7.50;;;4.28;;
325;SDS011;150;52.352;14.058;2023-02-28T00:17:39;6.03;;;3.20;;
325;SDS011;150;52.352;14.058;2023-02-28T00:20:06;6.05;;;3.30;;
325;SDS011;150;52.352;14.058;2023-02-28T00:22:35;4.85;;;3.05;;
325;SDS011;150;52.352;14.058;2023-02-28T00:25:02;11.55;;;4.97;;
325;SDS011;150;52.352;14.058;2023-02-28T00:27:31;7.57;;;4.32;;
325;SDS011;150;52.352;14.058;2023-02-28T00:29:57;7.32;;;3.63;;
325;SDS011;150;52.352;14.058;2023-02-28T00:32:24;9.00;;;3.53;;
325;SDS011;150;52.352;14.058;2023-02-28T00:34:51;13.90;;;4.30;;
325;SDS011;150;52.352;14.058;2023-02-28T00:37:17;5.40;;;3.47;;
325;SDS011;150;52.352;14.058;2023-02-28T00:39:44;8.63;;;4.60;;
325;SDS011;150;52.352;14.058;2023-02-28T00:42:11;7.68;;;4.18;;
325;SDS011;150;52.352;14.058;2023-02-28T00:44:39;5.18;;;3.45;;
325;SDS011;150;52.352;14.058;2023-02-28T00:47:06;11.32;;;3.50;;
325;SDS011;150;52.352;14.058;2023-02-28T00:49:32;4.78;;;2.85;;
325;SDS011;150;52.352;14.058;2023-02-28T00:51:59;4.33;;;3.63;;
325;SDS011;150;52.352;14.058;2023-02-28T00:54:26;6.03;;;3.07;;
325;SDS011;150;52.352;14.058;2023-02-28T00:56:53;5.63;;;3.40;;
325;SDS011;150;52.352;14.058;2023-02-28T00:59:19;4.28;;;3.20;;
325;SDS011;150;52.352;14.058;2023-02-28T01:01:47;4.23;;;2.63;;
325;SDS011;150;52.352;14.058;2023-02-28T01:04:14;5.57;;;3.05;;
325;SDS011;150;52.352;14.058;2023-02-28T01:06:41;4.40;;;2.65;;
325;SDS011;150;52.352;14.058;2023-02-28T01:09:08;5.28;;;2.80;;
325;SDS011;150;52.352;14.058;2023-02-28T01:11:35;3.30;;;2.70;;
325;SDS011;150;52.352;14.058;2023-02-28T01:14:02;5.05;;;3.20;;
325;SDS011;150;52.352;14.058;2023-02-28T01:16:30;5.73;;;2.50;;
325;SDS011;150;52.352;14.058;2023-02-28T01:18:58;4.00;;;2.80;;
325;SDS011;150;52.352;14.058;2023-02-28T01:21:24;3.92;;;2.35;;
325;SDS011;150;52.352;14.058;2023-02-28T01:23:51;3.20;;;2.10;;
325;SDS011;150;52.352;14.058;2023-02-28T01:26:19;3.45;;;2.70;;
325;SDS011;150;52.352;14.058;2023-02-28T02:08:09;4.90;;;2.80;;
325;SDS011;150;52.352;14.058;2023-02-28T02:19:04;3.58;;;2.33;;
325;SDS011;150;52.352;14.058;2023-02-28T02:25:53;3.07;;;2.00;;
325;SDS011;150;52.352;14.058;2023-02-28T03:00:26;4.77;;;3.30;;
325;SDS011;150;52.352;14.058;2023-02-28T03:06:53;4.57;;;3.60;;
325;SDS011;150;52.352;14.058;2023-02-28T03:35:20;5.93;;;3.67;;
325;SDS011;150;52.352;14.058;2023-02-28T03:37:50;6.22;;;4.20;;
325;SDS011;150;52.352;14.058;2023-02-28T03:40:21;4.90;;;3.17;;
325;SDS011;150;52.352;14.058;2023-02-28T03:42:53;4.57;;;3.50;;
325;SDS011;150;52.352;14.058;2023-02-28T03:45:21;4.95;;;3.85;;
325;SDS011;150;52.352;14.058;2023-02-28T03:47:53;4.93;;;3.60;;
325;SDS011;150;52.352;14.058;2023-02-28T03:50:25;6.97;;;3.90;;
325;SDS011;150;52.352;14.058;2023-02-28T03:53:00;3.85;;;3.15;;
325;SDS011;150;52.352;14.058;2023-02-28T03:55:39;4.43;;;3.10;;
325;SDS011;150;52.352;14.058;2023-02-28T03:58:11;4.15;;;3.30;;
325;SDS011;150;52.352;14.058;2023-02-28T04:00:43;4.88;;;2.90;;
325;SDS011;150;52.352;14.058;2023-02-28T04:03:22;4.10;;;2.80;;
325;SDS011;150;52.352;14.058;2023-02-28T04:05:58;4.43;;;2.78;;
325;SDS011;150;52.352;14.058;2023-02-28T04:08:25;4.28;;;2.75;;
325;SDS011;150;52.352;14.058;2023-02-28T04:10:55;6.15;;;3.15;;
325;SDS011;150;52.352;14.058;2023-02-28T04:13:26;4.55;;;3.58;;
325;SDS011;150;52.352;14.058;2023-02-28T04:15:59;4.57;;;3.10;;
325;SDS011;150;52.352;14.058;2023-02-28T04:18:26;4.97;;;2.90;;
325;SDS011;150;52.352;14.058;2023-02-28T04:20:54;4.82;;;3.78;;
325;SDS011;150;52.352;14.058;2023-02-28T04:23:26;12.57;;;8.55;;
325;SDS011;150;52.352;14.058;2023-02-28T04:25:54;20.05;;;13.10;;
325;SDS011;150;52.352;14.058;2023-02-28T04:28:27;19.52;;;10.98;;
325;SDS011;150;52.352;14.058;2023-02-28T04:30:54;13.10;;;8.85;;
325;SDS011;150;52.352;14.058;2023-02-28T04:33:29;11.65;;;5.95;;
325;SDS011;150;52.352;14.058;2023-02-28T04:36:02;7.00;;;5.75;;
325;SDS011;150;52.352;14.058;2023-02-28T04:38:31;5.47;;;5.18;;
325;SDS011;150;52.352;14.058;2023-02-28T04:41:08;8.25;;;5.10;;
325;SDS011;150;52.352;14.058;2023-02-28T04:43:34;5.00;;;4.20;;
325;SDS011;150;52.352;14.058;2023-02-28T04:46:08;7.47;;;4.57;;
325;SDS011;150;52.352;14.058;2023-02-28T04:48:36;6.40;;;4.07;;
325;SDS011;150;52.352;14.058;2023-02-28T04:51:12;4.85;;;3.50;;
325;SDS011;150;52.352;14.058;2023-02-28T04:53:42;4.80;;;3.70;;
325;SDS011;150;52.352;14.058;2023-02-28T04:56:11;6.85;;;3.78;;
325;SDS011;150;52.352;14.058;2023-02-28T04:58:39;5.68;;;3.50;;
325;SDS011;150;52.352;14.058;2023-02-28T05:01:06;4.78;;;3.53;;
325;SDS011;150;52.352;14.058;2023-02-28T05:03:42;5.47;;;4.10;;
325;SDS011;150;52.352;14.058;2023-02-28T05:06:13;6.25;;;4.38;;
325;SDS011;150;52.352;14.058;2023-02-28T05:08:40;6.57;;;3.90;;
325;SDS011;150;52.352;14.058;2023-02-28T05:11:08;6.18;;;4.40;;
325;SDS011;150;52.352;14.058;2023-02-28T05:13:40;6.43;;;3.80;;
325;SDS011;150;52.352;14.058;2023-02-28T05:16:06;6.72;;;4.88;;
325;SDS011;150;52.352;14.058;2023-02-28T05:18:33;7.05;;;4.72;;
325;SDS011;150;52.352;14.058;2023-02-28T05:21:00;5.38;;;4.13;;
325;SDS011;150;52.352;14.058;2023-02-28T05:23:28;5.00;;;3.72;;
325;SDS011;150;52.352;14.058;2023-02-28T05:25:55;10.00;;;6.03;;
325;SDS011;150;52.352;14.058;2023-02-28T05:28:22;6.22;;;4.10;;
325;SDS011;150;52.352;14.058;2023-02-28T05:30:49;9.00;;;6.38;;
325;SDS011;150;52.352;14.058;2023-02-28T05:33:16;6.68;;;4.03;;
325;SDS011;150;52.352;14.058;2023-02-28T05:35:42;7.75;;;3.72;;
325;SDS011;150;52.352;14.058;2023-02-28T05:38:09;6.10;;;4.25;;
325;SDS011;150;52.352;14.058;2023-02-28T05:40:38;5.10;;;3.30;;
325;SDS011;150;52.352;14.058;2023-02-28T05:43:05;4.05;;;3.15;;
325;SDS011;150;52.352;14.058;2023-02-28T05:45:35;4.95;;;3.05;;
325;SDS011;150;52.352;14.058;2023-02-28T05:48:01;5.38;;;4.05;;
325;SDS011;150;52.352;14.058;2023-02-28T05:50:28;6.60;;;5.10;;
325;SDS011;150;52.352;14.058;2023-02-28T05:52:55;6.68;;;5.38;;
325;SDS011;150;52.352;14.058;2023-02-28T05:55:22;4.60;;;4.15;;
325;SDS011;150;52.352;14.058;2023-02-28T05:57:50;5.63;;;3.45;;
325;SDS011;150;52.352;14.058;2023-02-28T06:00:17;6.70;;;4.70;;
325;SDS011;150;52.352;14.058;2023-02-28T06:02:44;8.13;;;5.32;;
325;SDS011;150;52.352;14.058;2023-02-28T06:05:12;7.10;;;5.03;;
325;SDS011;150;52.352;14.058;2023-02-28T06:07:40;8.23;;;5.95;;
325;SDS011;150;52.352;14.058;2023-02-28T06:10:07;8.13;;;5.15;;
325;SDS011;150;52.352;14.058;2023-02-28T06:12:34;10.20;;;5.20;;
325;SDS011;150;52.352;14.058;2023-02-28T06:15:03;7.70;;;5.10;;
325;SDS011;150;52.352;14.058;2023-02-28T06:17:30;7.53;;;4.88;;
325;SDS011;150;52.352;14.058;2023-02-28T06:19:57;8.05;;;5.40;;
325;SDS011;150;52.352;14.058;2023-02-28T06:22:25;6.95;;;5.05;;
325;SDS011;150;52.352;14.058;2023-02-28T06:24:52;9.90;;;4.90;;
325;SDS011;150;52.352;14.058;2023-02-28T06:27:19;7.30;;;5.07;;
325;SDS011;150;52.352;14.058;2023-02-28T06:29:47;8.52;;;5.10;;
325;SDS011;150;52.352;14.058;2023-02-28T06:32:15;5.65;;;4.10;;
325;SDS011;150;52.352;14.058;2023-02-28T06:34:41;8.50;;;5.55;;
325;SDS011;150;52.352;14.058;2023-02-28T06:37:08;6.25;;;4.65;;
325;SDS011;150;52.352;14.058;2023-02-28T06:39:34;8.15;;;4.00;;
325;SDS011;150;52.352;14.058;2023-02-28T06:42:01;6.72;;;4.70;;
325;SDS011;150;52.352;14.058;2023-02-28T06:44:28;8.75;;;4.65;;
325;SDS011;150;52.352;14.058;2023-02-28T06:47:00;9.30;;;5.75;;
325;SDS011;150;52.352;14.058;2023-02-28T06:49:31;8.48;;;4.90;;
325;SDS011;150;52.352;14.058;2023-02-28T06:51:58;7.00;;;5.37;;
325;SDS011;150;52.352;14.058;2023-02-28T06:54:24;7.55;;;6.13;;
325;SDS011;150;52.352;14.058;2023-02-28T06:56:52;14.10;;;6.53;;
325;SDS011;150;52.352;14.058;2023-02-28T06:59:20;7.60;;;6.10;;
325;SDS011;150;52.352;14.058;2023-02-28T07:01:47;10.15;;;6.85;;
325;SDS011;150;52.352;14.058;2023-02-28T07:04:13;8.75;;;6.22;;
325;SDS011;150;52.352;14.058;2023-02-28T07:06:41;8.30;;;6.30;;
325;SDS011;150;52.352;14.058;2023-02-28T07:09:08;7.32;;;6.28;;
325;SDS011;150;52.352;14.058;2023-02-28T07:11:35;11.23;;;7.10;;
325;SDS011;150;52.352;14.058;2023-02-28T07:14:02;9.45;;;6.05;;
325;SDS011;150;52.352;14.058;2023-02-28T07:16:29;10.20;;;5.85;;
325;SDS011;150;52.352;14.058;2023-02-28T07:18:56;9.90;;;6.78;;
325;SDS011;150;52.352;14.058;2023-02-28T07:21:23;11.40;;;6.65;;
325;SDS011;150;52.352;14.058;2023-02-28T07:23:53;9.48;;;5.63;;
325;SDS011;150;52.352;14.058;2023-02-28T07:26:21;10.52;;;6.25;;
325;SDS011;150;52.352;14.058;2023-02-28T07:28:48;12.32;;;8.07;;
325;SDS011;150;52.352;14.058;2023-02-28T07:51:11;10.93;;;6.55;;
325;SDS011;150;52.352;14.058;2023-02-28T07:53:38;12.53;;;6.70;;
325;SDS011;150;52.352;14.058;2023-02-28T07:56:06;10.07;;;6.43;;
325;SDS011;150;52.352;14.058;2023-02-28T07:58:33;12.20;;;7.00;;
325;SDS011;150;52.352;14.058;2023-02-28T08:01:06;10.23;;;6.38;;
325;SDS011;150;52.352;14.058;2023-02-28T08:03:34;13.48;;;7.30;;
325;SDS011;150;52.352;14.058;2023-02-28T08:06:01;9.33;;;6.40;;
325;SDS011;150;52.352;14.058;2023-02-28T08:08:28;9.60;;;5.88;;
325;SDS011;150;52.352;14.058;2023-02-28T08:10:57;6.38;;;5.20;;
325;SDS011;150;52.352;14.058;2023-02-28T08:13:24;8.97;;;6.40;;
325;SDS011;150;52.352;14.058;2023-02-28T08:15:52;7.82;;;5.00;;
325;SDS011;150;52.352;14.058;2023-02-28T08:18:20;13.90;;;10.73;;
325;SDS011;150;52.352;14.058;2023-02-28T08:20:46;11.60;;;5.60;;
325;SDS011;150;52.352;14.058;2023-02-28T08:23:13;8.50;;;5.10;;
325;SDS011;150;52.352;14.058;2023-02-28T08:25:40;16.42;;;11.63;;
325;SDS011;150;52.352;14.058;2023-02-28T08:28:06;9.07;;;5.95;;
325;SDS011;150;52.352;14.058;2023-02-28T08:30:33;9.43;;;5.47;;
325;SDS011;150;52.352;14.058;2023-02-28T08:33:00;7.57;;;5.18;;
325;SDS011;150;52.352;14.058;2023-02-28T08:35:28;5.68;;;5.32;;
325;SDS011;150;52.352;14.058;2023-02-28T08:37:54;9.55;;;5.00;;
325;SDS011;150;52.352;14.058;2023-02-28T08:40:21;17.50;;;7.88;;
325;SDS011;150;52.352;14.058;2023-02-28T08:42:48;6.80;;;4.65;;
325;SDS011;150;52.352;14.058;2023-02-28T08:45:15;10.10;;;5.40;;
325;SDS011;150;52.352;14.058;2023-02-28T08:47:42;7.70;;;4.60;;
325;SDS011;150;52.352;14.058;2023-02-28T08:50:09;7.28;;;5.40;;
325;SDS011;150;52.352;14.058;2023-02-28T08:52:37;7.38;;;3.53;;
325;SDS011;150;52.352;14.058;2023-02-28T08:55:04;7.78;;;4.68;;
325;SDS011;150;52.352;14.058;2023-02-28T08:57:31;5.90;;;3.50;;
325;SDS011;150;52.352;14.058;2023-02-28T08:59:58;5.25;;;3.72;;
325;SDS011;150;52.352;14.058;2023-02-28T09:02:26;4.60;;;3.30;;
325;SDS011;150;52.352;14.058;2023-02-28T09:04:53;5.38;;;2.90;;
325;SDS011;150;52.352;14.058;2023-02-28T09:07:20;6.50;;;3.38;;
325;SDS011;150;52.352;14.058;2023-02-28T09:09:48;5.13;;;2.70;;
325;SDS011;150;52.352;14.058;2023-02-28T09:12:20;5.65;;;3.50;;
325;SDS011;150;52.352;14.058;2023-02-28T09:14:47;3.65;;;2.83;;
325;SDS011;150;52.352;14.058;2023-02-28T09:17:14;3.50;;;2.30;;
325;SDS011;150;52.352;14.058;2023-02-28T09:19:41;5.43;;;2.75;;
325;SDS011;150;52.352;14.058;2023-02-28T09:22:07;8.70;;;3.78;;
325;SDS011;150;52.352;14.058;2023-02-28T09:24:35;2.92;;;2.20;;
325;SDS011;150;52.352;14.058;2023-02-28T09:27:03;3.67;;;1.90;;
325;SDS011;150;52.352;14.058;2023-02-28T09:29:30;21.67;;;16.48;;
325;SDS011;150;52.352;14.058;2023-02-28T09:31:58;4.68;;;2.90;;
325;SDS011;150;52.352;14.058;2023-02-28T09:34:24;4.57;;;2.78;;
325;SDS011;150;52.352;14.058;2023-02-28T09:36:51;4.07;;;2.38;;
325;SDS011;150;52.352;14.058;2023-02-28T09:39:20;5.18;;;2.55;;
325;SDS011;150;52.352;14.058;2023-02-28T09:41:48;5.43;;;2.78;;
325;SDS011;150;52.352;14.058;2023-02-28T09:44:20;3.20;;;1.70;;
325;SDS011;150;52.352;14.058;2023-02-28T09:46:54;3.00;;;1.67;;
325;SDS011;150;52.352;14.058;2023-02-28T09:49:27;3.13;;;1.58;;
325;SDS011;150;52.352;14.058;2023-02-28T09:51:59;3.97;;;1.50;;
325;SDS011;150;52.352;14.058;2023-02-28T09:54:29;3.05;;;1.40;;
325;SDS011;150;52.352;14.058;2023-02-28T09:56:58;1.73;;;1.17;;
325;SDS011;150;52.352;14.058;2023-02-28T09:59:35;2.30;;;1.40;;
325;SDS011;150;52.352;14.058;2023-02-28T10:02:24;2.92;;;1.40;;
325;SDS011;150;52.352;14.058;2023-02-28T10:05:08;2.90;;;1.70;;
325;SDS011;150;52.352;14.058;2023-02-28T10:07:44;2.83;;;1.33;;
325;SDS011;150;52.352;14.058;2023-02-28T10:10:21;1.92;;;1.00;;
325;SDS011;150;52.352;14.058;2023-02-28T10:12:53;2.90;;;1.90;;
325;SDS011;150;52.352;14.058;2023-02-28T10:15:23;4.45;;;2.67;;
325;SDS011;150;52.352;14.058;2023-02-28T10:17:53;7.03;;;4.22;;
325;SDS011;150;52.352;14.058;2023-02-28T10:20:23;4.53;;;3.40;;
325;SDS011;150;52.352;14.058;2023-02-28T10:22:57;3.17;;;1.80;;
325;SDS011;150;52.352;14.058;2023-02-28T10:25:32;4.20;;;2.40;;
325;SDS011;150;52.352;14.058;2023-02-28T10:28:10;3.92;;;2.45;;
325;SDS011;150;52.352;14.058;2023-02-28T10:30:40;2.87;;;1.60;;
325;SDS011;150;52.352;14.058;2023-02-28T10:33:14;3.33;;;1.80;;
325;SDS011;150;52.352;14.058;2023-02-28T10:35:45;2.00;;;1.33;;
325;SDS011;150;52.352;14.058;2023-02-28T10:38:14;4.20;;;1.50;;
325;SDS011;150;52.352;14.058;2023-02-28T10:40:43;12.35;;;9.30;;
325;SDS011;150;52.352;14.058;2023-02-28T10:43:18;10.25;;;7.47;;
325;SDS011;150;52.352;14.058;2023-02-28T10:45:58;4.63;;;3.00;;
325;SDS011;150;52.352;14.058;2023-02-28T10:48:29;3.22;;;1.45;;
325;SDS011;150;52.352;14.058;2023-02-28T10:50:58;2.90;;;1.30;;
325;SDS011;150;52.352;14.058;2023-02-28T10:53:37;1.70;;;1.20;;
325;SDS011;150;52.352;14.058;2023-02-28T10:56:14;2.80;;;1.60;;
325;SDS011;150;52.352;14.058;2023-02-28T10:58:50;2.63;;;1.30;;
325;SDS011;150;52.352;14.058;2023-02-28T11:01:21;2.40;;;1.20;;
325;SDS011;150;52.352;14.058;2023-02-28T11:03:50;2.70;;;1.30;;
325;SDS011;150;52.352;14.058;2023-02-28T11:06:19;2.40;;;1.45;;
325;SDS011;150;52.352;14.058;2023-02-28T11:08:48;3.30;;;1.20;;
325;SDS011;150;52.352;14.058;2023-02-28T11:11:17;2.00;;;1.40;;
325;SDS011;150;52.352;14.058;2023-02-28T11:13:46;2.65;;;1.63;;
325;SDS011;150;52.352;14.058;2023-02-28T11:16:15;3.05;;;1.75;;
325;SDS011;150;52.352;14.058;2023-02-28T11:18:46;2.20;;;1.30;;
325;SDS011;150;52.352;14.058;2023-02-28T11:21:15;2.15;;;1.52;;
325;SDS011;150;52.352;14.058;2023-02-28T11:23:48;2.97;;;1.50;;
325;SDS011;150;52.352;14.058;2023-02-28T11:26:35;2.65;;;1.38;;
325;SDS011;150;52.352;14.058;2023-02-28T11:29:08;2.65;;;1.48;;
325;SDS011;150;52.352;14.058;2023-02-28T11:31:38;2.60;;;1.40;;
325;SDS011;150;52.352;14.058;2023-02-28T11:36:50;3.80;;;2.00;;
325;SDS011;150;52.352;14.058;2023-02-28T11:39:19;3.53;;;2.00;;
325;SDS011;150;52.352;14.058;2023-02-28T11:41:51;3.03;;;1.25;;
325;SDS011;150;52.352;14.058;2023-02-28T11:44:43;2.45;;;1.60;;
325;SDS011;150;52.352;14.058;2023-02-28T11:47:23;2.78;;;1.67;;
325;SDS011;150;52.352;14.058;2023-02-28T11:50:02;2.85;;;1.88;;
325;SDS011;150;52.352;14.058;2023-02-28T11:52:36;4.78;;;2.63;;
325;SDS011;150;52.352;14.058;2023-02-28T11:55:14;1.95;;;1.60;;
325;SDS011;150;52.352;14.058;2023-02-28T11:58:05;3.50;;;2.45;;
325;SDS011;150;52.352;14.058;2023-02-28T12:00:46;3.85;;;2.50;;
325;SDS011;150;52.352;14.058;2023-02-28T12:03:26;2.78;;;1.75;;
325;SDS011;150;52.352;14.058;2023-02-28T12:06:01;3.20;;;1.90;;
325;SDS011;150;52.352;14.058;2023-02-28T12:08:41;3.95;;;2.00;;
325;SDS011;150;52.352;14.058;2023-02-28T12:11:14;5.10;;;1.88;;
325;SDS011;150;52.352;14.058;2023-02-28T12:13:50;3.10;;;1.90;;
325;SDS011;150;52.352;14.058;2023-02-28T12:16:34;4.15;;;2.00;;
325;SDS011;150;52.352;14.058;2023-02-28T12:19:15;3.80;;;2.20;;
325;SDS011;150;52.352;14.058;2023-02-28T12:21:51;3.08;;;2.08;;
325;SDS011;150;52.352;14.058;2023-02-28T12:27:29;2.93;;;2.30;;
325;SDS011;150;52.352;14.058;2023-02-28T12:30:01;4.20;;;2.50;;
325;SDS011;150;52.352;14.058;2023-02-28T12:32:33;3.20;;;2.00;;
325;SDS011;150;52.352;14.058;2023-02-28T12:35:04;2.35;;;1.85;;
325;SDS011;150;52.352;14.058;2023-02-28T12:37:40;4.68;;;1.98;;
325;SDS011;150;52.352;14.058;2023-02-28T12:40:12;3.40;;;1.98;;
325;SDS011;150;52.352;14.058;2023-02-28T12:42:42;4.47;;;2.65;;
325;SDS011;150;52.352;14.058;2023-02-28T12:45:13;4.70;;;3.55;;
325;SDS011;150;52.352;14.058;2023-02-28T12:47:44;5.05;;;3.05;;
325;SDS011;150;52.352;14.058;2023-02-28T12:50:16;4.22;;;2.40;;
325;SDS011;150;52.352;14.058;2023-02-28T12:52:48;3.00;;;2.53;;
325;SDS011;150;52.352;14.058;2023-02-28T12:55:23;4.95;;;3.42;;
325;SDS011;150;52.352;14.058;2023-02-28T12:57:58;4.65;;;2.40;;
325;SDS011;150;52.352;14.058;2023-02-28T13:00:34;3.63;;;2.65;;
325;SDS011;150;52.352;14.058;2023-02-28T13:06:09;2.42;;;2.17;;
325;SDS011;150;52.352;14.058;2023-02-28T13:09:07;4.40;;;2.55;;
325;SDS011;150;52.352;14.058;2023-02-28T13:11:39;3.72;;;3.00;;
325;SDS011;150;52.352;14.058;2023-02-28T13:14:16;3.42;;;3.05;;
325;SDS011;150;52.352;14.058;2023-02-28T13:16:53;3.73;;;2.40;;
325;SDS011;150;52.352;14.058;2023-02-28T13:19:23;3.85;;;2.70;;
325;SDS011;150;52.352;14.058;2023-02-28T13:21:53;3.15;;;2.40;;
325;SDS011;150;52.352;14.058;2023-02-28T13:24:38;4.43;;;2.63;;
325;SDS011;150;52.352;14.058;2023-02-28T13:27:11;6.45;;;2.17;;
325;SDS011;150;52.352;14.058;2023-02-28T13:29:56;3.15;;;1.88;;
325;SDS011;150;52.352;14.058;2023-02-28T13:44:09;2.60;;;2.10;;
325;SDS011;150;52.352;14.058;2023-02-28T13:49:49;4.60;;;2.83;;
325;SDS011;150;52.352;14.058;2023-02-28T13:52:26;3.57;;;2.57;;
325;SDS011;150;52.352;14.058;2023-02-28T13:58:00;4.80;;;3.00;;
325;SDS011;150;52.352;14.058;2023-02-28T14:01:00;5.35;;;3.70;;
325;SDS011;150;52.352;14.058;2023-02-28T14:03:52;4.70;;;2.47;;
325;SDS011;150;52.352;14.058;2023-02-28T14:06:33;9.10;;;6.90;;
325;SDS011;150;52.352;14.058;2023-02-28T14:09:02;5.73;;;3.00;;
325;SDS011;150;52.352;14.058;2023-02-28T14:11:45;5.72;;;2.85;;
325;SDS011;150;52.352;14.058;2023-02-28T14:17:17;9.40;;;6.00;;
325;SDS011;150;52.352;14.058;2023-02-28T14:19:47;5.45;;;4.10;;
325;SDS011;150;52.352;14.058;2023-02-28T14:22:36;4.40;;;2.88;;
325;SDS011;150;52.352;14.058;2023-02-28T14:25:25;4.30;;;2.60;;
325;SDS011;150;52.352;14.058;2023-02-28T14:28:08;7.32;;;3.50;;
325;SDS011;150;52.352;14.058;2023-02-28T14:30:52;5.60;;;3.55;;
325;SDS011;150;52.352;14.058;2023-02-28T14:33:42;3.88;;;2.63;;
325;SDS011;150;52.352;14.058;2023-02-28T14:36:42;5.88;;;2.30;;
325;SDS011;150;52.352;14.058;2023-02-28T14:39:20;5.00;;;2.42;;
325;SDS011;150;52.352;14.058;2023-02-28T14:42:03;5.20;;;2.90;;
325;SDS011;150;52.352;14.058;2023-02-28T14:44:35;4.40;;;2.83;;
325;SDS011;150;52.352;14.058;2023-02-28T14:47:11;5.00;;;2.78;;
325;SDS011;150;52.352;14.058;2023-02-28T14:49:46;4.72;;;2.83;;
325;SDS011;150;52.352;14.058;2023-02-28T14:52:25;3.80;;;2.80;;
325;SDS011;150;52.352;14.058;2023-02-28T14:55:05;4.55;;;2.92;;
325;SDS011;150;52.352;14.058;2023-02-28T14:58:01;6.13;;;3.72;;
325;SDS011;150;52.352;14.058;2023-02-28T15:04:25;3.78;;;2.58;;
325;SDS011;150;52.352;14.058;2023-02-28T15:07:11;5.10;;;2.55;;
325;SDS011;150;52.352;14.058;2023-02-28T15:13:00;4.25;;;2.60;;
325;SDS011;150;52.352;14.058;2023-02-28T15:15:41;3.45;;;2.53;;
325;SDS011;150;52.352;14.058;2023-02-28T15:18:21;3.35;;;2.05;;
325;SDS011;150;52.352;14.058;2023-02-28T15:21:03;3.17;;;2.33;;
325;SDS011;150;52.352;14.058;2023-02-28T15:23:44;3.80;;;2.55;;
325;SDS011;150;52.352;14.058;2023-02-28T15:26:24;4.55;;;3.00;;
325;SDS011;150;52.352;14.058;2023-02-28T15:29:06;5.27;;;3.17;;
325;SDS011;150;52.352;14.058;2023-02-28T15:31:40;4.18;;;2.70;;
325;SDS011;150;52.352;14.058;2023-02-28T15:34:18;3.13;;;2.40;;
325;SDS011;150;52.352;14.058;2023-02-28T15:36:48;3.00;;;2.20;;
325;SDS011;150;52.352;14.058;2023-02-28T15:39:33;3.70;;;2.08;;
325;SDS011;150;52.352;14.058;2023-02-28T15:42:17;5.05;;;2.60;;
325;SDS011;150;52.352;14.058;2023-02-28T15:44:46;3.63;;;2.10;;
325;SDS011;150;52.352;14.058;2023-02-28T15:47:19;3.80;;;2.75;;
325;SDS011;150;52.352;14.058;2023-02-28T15:49:51;3.20;;;1.97;;
325;SDS011;150;52.352;14.058;2023-02-28T15:52:25;4.63;;;2.70;;
325;SDS011;150;52.352;14.058;2023-02-28T15:55:07;4.28;;;2.40;;
325;SDS011;150;52.352;14.058;2023-02-28T15:57:43;3.33;;;2.35;;
325;SDS011;150;52.352;14.058;2023-02-28T16:00:20;5.03;;;3.35;;
325;SDS011;150;52.352;14.058;2023-02-28T16:02:48;4.85;;;2.60;;
325;SDS011;150;52.352;14.058;2023-02-28T16:05:23;6.63;;;3.17;;
325;SDS011;150;52.352;14.058;2023-02-28T16:07:56;4.30;;;2.53;;
325;SDS011;150;52.352;14.058;2023-02-28T16:10:26;5.20;;;3.33;;
325;SDS011;150;52.352;14.058;2023-02-28T16:12:56;6.10;;;4.53;;
325;SDS011;150;52.352;14.058;2023-02-28T16:15:24;8.60;;;4.70;;
325;SDS011;150;52.352;14.058;2023-02-28T16:18:07;10.18;;;5.75;;
325;SDS011;150;52.352;14.058;2023-02-28T16:20:53;7.10;;;4.68;;
325;SDS011;150;52.352;14.058;2023-02-28T16:23:20;7.60;;;5.23;;
325;SDS011;150;52.352;14.058;2023-02-28T16:25:55;4.97;;;2.70;;
325;SDS011;150;52.352;14.058;2023-02-28T16:28:23;5.50;;;2.78;;
325;SDS011;150;52.352;14.058;2023-02-28T16:31:02;7.20;;;3.20;;
325;SDS011;150;52.352;14.058;2023-02-28T16:33:34;3.05;;;2.63;;
325;SDS011;150;52.352;14.058;2023-02-28T16:36:03;4.90;;;3.08;;
325;SDS011;150;52.352;14.058;2023-02-28T16:38:34;5.28;;;3.20;;
325;SDS011;150;52.352;14.058;2023-02-28T16:41:09;4.00;;;3.30;;
325;SDS011;150;52.352;14.058;2023-02-28T16:43:44;4.95;;;2.70;;
325;SDS011;150;52.352;14.058;2023-02-28T16:46:12;4.38;;;2.90;;
325;SDS011;150;52.352;14.058;2023-02-28T16:48:47;3.85;;;3.00;;
325;SDS011;150;52.352;14.058;2023-02-28T16:51:25;5.75;;;3.22;;
325;SDS011;150;52.352;14.058;2023-02-28T16:53:54;4.27;;;3.00;;
325;SDS011;150;52.352;14.058;2023-02-28T16:56:32;6.25;;;3.92;;
325;SDS011;150;52.352;14.058;2023-02-28T16:59:10;9.63;;;5.63;;
325;SDS011;150;52.352;14.058;2023-02-28T17:01:48;7.43;;;4.80;;
325;SDS011;150;52.352;14.058;2023-02-28T17:04:24;10.05;;;6.90;;
325;SDS011;150;52.352;14.058;2023-02-28T17:06:51;17.55;;;10.00;;
325;SDS011;150;52.352;14.058;2023-02-28T17:09:30;21.95;;;11.73;;
325;SDS011;150;52.352;14.058;2023-02-28T17:12:06;12.65;;;7.45;;
325;SDS011;150;52.352;14.058;2023-02-28T17:14:33;11.23;;;6.75;;
325;SDS011;150;52.352;14.058;2023-02-28T17:17:28;10.05;;;6.00;;
325;SDS011;150;52.352;14.058;2023-02-28T17:20:06;6.22;;;3.83;;
325;SDS011;150;52.352;14.058;2023-02-28T17:22:47;7.25;;;3.90;;
325;SDS011;150;52.352;14.058;2023-02-28T17:25:38;4.70;;;3.95;;
325;SDS011;150;52.352;14.058;2023-02-28T17:28:12;4.97;;;3.95;;
325;SDS011;150;52.352;14.058;2023-02-28T17:33:25;8.95;;;6.63;;
325;SDS011;150;52.352;14.058;2023-02-28T17:36:01;7.22;;;5.80;;
325;SDS011;150;52.352;14.058;2023-02-28T17:38:36;8.57;;;5.85;;
325;SDS011;150;52.352;14.058;2023-02-28T17:41:07;11.00;;;6.30;;
325;SDS011;150;52.352;14.058;2023-02-28T17:43:59;8.70;;;6.55;;
325;SDS011;150;52.352;14.058;2023-02-28T17:46:37;7.05;;;5.60;;
325;SDS011;150;52.352;14.058;2023-02-28T17:49:05;7.25;;;5.10;;
325;SDS011;150;52.352;14.058;2023-02-28T17:51:44;7.18;;;4.30;;
325;SDS011;150;52.352;14.058;2023-02-28T17:54:20;5.28;;;4.47;;
325;SDS011;150;52.352;14.058;2023-02-28T17:56:47;6.65;;;5.22;;
325;SDS011;150;52.352;14.058;2023-02-28T17:59:25;6.63;;;4.70;;
325;SDS011;150;52.352;14.058;2023-02-28T18:01:58;6.68;;;5.80;;
325;SDS011;150;52.352;14.058;2023-02-28T18:04:24;12.60;;;8.93;;
325;SDS011;150;52.352;14.058;2023-02-28T18:06:52;18.27;;;10.93;;
325;SDS011;150;52.352;14.058;2023-02-28T18:09:21;19.33;;;12.45;;
325;SDS011;150;52.352;14.058;2023-02-28T18:11:48;20.92;;;12.77;;
325;SDS011;150;52.352;14.058;2023-02-28T18:14:17;13.80;;;9.60;;
325;SDS011;150;52.352;14.058;2023-02-28T18:16:46;15.10;;;9.52;;
325;SDS011;150;52.352;14.058;2023-02-28T18:19:13;7.88;;;6.00;;
325;SDS011;150;52.352;14.058;2023-02-28T18:21:41;10.13;;;5.25;;
325;SDS011;150;52.352;14.058;2023-02-28T18:24:09;8.30;;;5.47;;
325;SDS011;150;52.352;14.058;2023-02-28T18:26:36;12.05;;;6.72;;
325;SDS011;150;52.352;14.058;2023-02-28T18:29:12;9.77;;;7.93;;
325;SDS011;150;52.352;14.058;2023-02-28T18:31:42;11.50;;;8.85;;
325;SDS011;150;52.352;14.058;2023-02-28T18:34:10;10.13;;;8.88;;
325;SDS011;150;52.352;14.058;2023-02-28T18:36:37;9.70;;;7.72;;
325;SDS011;150;52.352;14.058;2023-02-28T18:39:04;11.05;;;8.00;;
325;SDS011;150;52.352;14.058;2023-02-28T18:41:30;8.23;;;7.10;;
325;SDS011;150;52.352;14.058;2023-02-28T18:43:58;8.23;;;5.60;;
325;SDS011;150;52.352;14.058;2023-02-28T18:46:26;7.90;;;5.97;;
325;SDS011;150;52.352;14.058;2023-02-28T18:48:53;10.25;;;7.18;;